FXE weather

Fort Lauderdale Executive Airport
Fort Lauderdale, Florida, United States

Public forecast

Using degrees Fahrenheit for public forecast. Weather courtesy of forecast.io.

Current aviation weather report (METAR) for Fort Lauderdale Executive Airport

Retrieved 2020/07/11 09:53 UTC (25 minutes ago):

KFXE 110953Z AUTO 27006KT 10SM CLR 27/26 A2992 RMK AO2 SLP135 T02720256

Aviation forecast (TAF) for Fort Lauderdale Executive Airport

Retrieved 2020/07/11 06:42 UTC (4 hours ago):

TAF KFXE 110539Z 1106/1206 24005KT P6SM SCT040 BKN140 FM111500 26008KT P6SM VCSH SCT040 BKN140 FM111800 22012KT P6SM VCTS SCT025CB BKN050 PROB30 1118/1124 TSRA BKN025CB FM120200 22005KT P6SM FEW050 SCT250